createdAt,value
2018-08-09T00:07:59.673Z,12.7
2018-08-09T00:17:58.920Z,13
2018-08-09T00:27:58.165Z,12.6
2018-08-09T00:37:57.413Z,12.9
2018-08-09T00:47:56.658Z,13
2018-08-09T00:57:55.907Z,13
2018-08-09T01:07:55.152Z,13
2018-08-09T01:17:54.399Z,12.6
2018-08-09T01:27:53.649Z,13
2018-08-09T01:37:52.889Z,13
2018-08-09T01:47:52.136Z,13.1
2018-08-09T01:57:51.381Z,13.1
2018-08-09T02:07:50.633Z,12.4
2018-08-09T02:17:49.875Z,13
2018-08-09T02:27:49.120Z,13
2018-08-09T02:37:48.370Z,12.9
2018-08-09T02:47:47.613Z,12.8
2018-08-09T02:57:46.859Z,12.6
2018-08-09T03:07:46.108Z,13.1
2018-08-09T03:17:45.350Z,12.7
2018-08-09T03:27:44.595Z,12.9
2018-08-09T03:37:43.850Z,13.2
2018-08-09T03:47:43.141Z,12.8
2018-08-09T03:57:42.338Z,13.2
2018-08-09T04:07:41.585Z,13.1
2018-08-09T04:17:40.830Z,13.8
2018-08-09T04:27:40.081Z,14.4
2018-08-09T04:37:39.327Z,13.8
2018-08-09T04:47:38.575Z,14.1
2018-08-09T04:57:37.822Z,14.1
2018-08-09T05:07:37.073Z,14.6
2018-08-09T05:17:36.319Z,14.5
2018-08-09T05:27:35.567Z,14.6
2018-08-09T05:37:34.812Z,14.3
2018-08-09T05:47:34.057Z,14.1
2018-08-09T05:57:33.304Z,13.8
2018-08-09T06:07:32.550Z,14.1
2018-08-09T06:17:31.846Z,14.2
2018-08-09T06:27:31.043Z,13.9
2018-08-09T06:37:30.290Z,14.6
2018-08-09T06:47:29.572Z,14.3
2018-08-09T06:57:28.783Z,14.5
2018-08-09T07:07:28.040Z,14
2018-08-09T07:17:27.278Z,14.2
2018-08-09T07:27:26.520Z,14
2018-08-09T07:37:25.769Z,14
2018-08-09T07:47:25.012Z,14.3
2018-08-09T07:57:24.259Z,14.5
2018-08-09T08:07:23.504Z,14.5
2018-08-09T08:17:22.750Z,14.7
2018-08-09T08:27:21.998Z,14.4
2018-08-09T08:37:21.245Z,14.4
2018-08-09T08:47:20.562Z,14.2
2018-08-09T08:57:19.737Z,14.1
2018-08-09T09:07:19.034Z,14.3
2018-08-09T09:17:18.228Z,14.5
2018-08-09T09:27:17.473Z,13.9
2018-08-09T09:37:16.719Z,14.7
2018-08-09T09:47:15.966Z,14.2
2018-08-09T09:57:15.215Z,14.6
2018-08-09T10:07:14.550Z,14.2
2018-08-09T10:17:13.712Z,14
2018-08-09T10:27:12.959Z,14.3
2018-08-09T10:37:12.210Z,14.5
2018-08-09T10:47:11.504Z,14.6
2018-08-09T10:57:10.700Z,13.5
2018-08-09T11:07:09.951Z,14.3
2018-08-09T11:17:09.215Z,13.9
2018-08-09T11:27:08.449Z,14
2018-08-09T11:37:07.691Z,14.3
2018-08-09T11:47:06.935Z,14.3
2018-08-09T11:57:06.203Z,14.6
2018-08-09T12:07:05.456Z,14.5
2018-08-09T12:17:04.679Z,14.4
2018-08-09T12:27:03.987Z,14.4
2018-08-09T12:37:03.166Z,14.5
2018-08-09T12:47:02.421Z,14.3
2018-08-09T12:57:01.659Z,14
2018-08-09T13:07:00.957Z,14.6
2018-08-09T13:17:00.224Z,13.4
2018-08-09T13:26:59.411Z,13.5
2018-08-09T13:36:58.652Z,13.2
2018-08-09T13:46:57.896Z,13.3
2018-08-09T13:56:57.137Z,13
2018-08-09T14:06:56.386Z,12.8
2018-08-09T14:26:54.874Z,12.7
2018-08-09T14:36:54.121Z,13.2
2018-08-09T14:46:53.372Z,12.8
2018-08-09T14:56:52.614Z,13.1
2018-08-09T15:06:51.876Z,12.9
2018-08-09T15:16:51.108Z,12.9
2018-08-09T15:26:50.360Z,12.9
2018-08-09T15:36:49.613Z,13.2
2018-08-09T15:46:48.861Z,12.7
2018-08-09T15:56:48.149Z,12.5
2018-08-09T16:06:47.407Z,13
2018-08-09T16:16:46.655Z,13.2
2018-08-09T16:26:45.850Z,12.7
2018-08-09T16:36:45.096Z,12.6
2018-08-09T16:46:44.396Z,13.2
2018-08-09T16:56:43.592Z,12.7
2018-08-09T17:06:42.841Z,12.6
2018-08-09T17:16:42.082Z,13.1
2018-08-09T17:26:41.381Z,12.7
2018-08-09T17:36:40.634Z,12.6
2018-08-09T17:46:39.832Z,13.1
2018-08-09T17:56:39.078Z,13.1
2018-08-09T18:06:38.335Z,12.6
2018-08-09T18:16:37.632Z,12.7
2018-08-09T18:26:36.832Z,12.6
2018-08-09T18:36:36.083Z,13
2018-08-09T18:46:35.332Z,12.4
2018-08-09T18:56:34.581Z,12.6
2018-08-09T19:06:33.833Z,13.1
2018-08-09T19:16:33.082Z,12.5
2018-08-09T19:26:32.330Z,13
2018-08-09T19:36:31.577Z,13.1
2018-08-09T19:46:30.827Z,12.8
2018-08-09T19:56:30.075Z,13.2
2018-08-09T20:06:29.426Z,12.9
2018-08-09T20:16:28.572Z,13
2018-08-09T20:26:27.816Z,13
2018-08-09T20:36:27.063Z,12.5
2018-08-09T20:46:26.321Z,12.7
2018-08-09T20:56:25.552Z,13.2
2018-08-09T21:06:24.803Z,13.1
2018-08-09T21:16:24.096Z,12.6
2018-08-09T21:26:23.343Z,13.1
2018-08-09T21:36:22.537Z,12.7
2018-08-09T21:46:21.786Z,13.1
2018-08-09T21:56:21.031Z,13.2
2018-08-09T22:06:20.276Z,13.1
2018-08-09T22:16:19.522Z,12.8
2018-08-09T22:26:18.772Z,13.1
2018-08-09T22:36:18.104Z,13.1
2018-08-09T22:46:17.256Z,12.4
2018-08-09T22:56:16.503Z,12.8
2018-08-09T23:06:15.746Z,12.8
2018-08-09T23:16:14.991Z,13
2018-08-09T23:26:14.235Z,12.6
2018-08-09T23:36:13.480Z,13.1
2018-08-09T23:46:12.727Z,12.5
2018-08-09T23:56:11.972Z,12.5
